sensor_id;sensor_type;location;lat;lon;timestamp;pressure;altitude;pressure_sealevel;temperature;humidity
52291;BME280;39663;45.432;28.050;2024-03-25T00:00:16;99935.79;;;17.50;40.75
52291;BME280;39663;45.432;28.050;2024-03-25T00:00:48;99932.83;;;17.50;40.82
52291;BME280;39663;45.432;28.050;2024-03-25T00:01:19;99932.76;;;17.30;40.73
52291;BME280;39663;45.432;28.050;2024-03-25T00:01:51;99927.92;;;17.68;40.72
52291;BME280;39663;45.432;28.050;2024-03-25T00:02:22;99925.54;;;17.22;40.90
52291;BME280;39663;45.432;28.050;2024-03-25T00:02:54;99926.36;;;17.24;40.87
52291;BME280;39663;45.432;28.050;2024-03-25T00:03:25;99926.64;;;17.18;40.87
52291;BME280;39663;45.432;28.050;2024-03-25T00:03:57;99924.23;;;17.19;40.76
52291;BME280;39663;45.432;28.050;2024-03-25T00:04:29;99921.29;;;17.34;40.97
52291;BME280;39663;45.432;28.050;2024-03-25T00:05:07;99920.20;;;17.12;41.00
52291;BME280;39663;45.432;28.050;2024-03-25T00:05:39;99919.45;;;17.52;41.05
52291;BME280;39663;45.432;28.050;2024-03-25T00:06:11;99917.84;;;17.32;41.05
52291;BME280;39663;45.432;28.050;2024-03-25T00:06:42;99918.21;;;17.30;41.13
52291;BME280;39663;45.432;28.050;2024-03-25T00:07:14;99916.73;;;17.19;40.96
52291;BME280;39663;45.432;28.050;2024-03-25T00:07:46;99916.22;;;17.05;41.08
52291;BME280;39663;45.432;28.050;2024-03-25T00:08:17;99913.98;;;17.26;41.17
52291;BME280;39663;45.432;28.050;2024-03-25T00:08:49;99912.00;;;17.46;41.15
52291;BME280;39663;45.432;28.050;2024-03-25T00:09:20;99910.92;;;17.06;40.97
52291;BME280;39663;45.432;28.050;2024-03-25T00:09:52;99908.08;;;17.26;41.09
52291;BME280;39663;45.432;28.050;2024-03-25T00:10:23;99906.23;;;17.01;40.99
52291;BME280;39663;45.432;28.050;2024-03-25T00:10:55;99905.26;;;17.42;41.16
52291;BME280;39663;45.432;28.050;2024-03-25T00:11:27;99900.55;;;16.97;41.23
52291;BME280;39663;45.432;28.050;2024-03-25T00:12:00;99900.37;;;17.41;41.12
52291;BME280;39663;45.432;28.050;2024-03-25T00:12:31;99896.62;;;17.17;41.20
52291;BME280;39663;45.432;28.050;2024-03-25T00:13:03;99891.81;;;17.20;41.21
52291;BME280;39663;45.432;28.050;2024-03-25T00:13:35;99890.67;;;17.13;41.14
52291;BME280;39663;45.432;28.050;2024-03-25T00:14:07;99888.41;;;17.18;41.19
52291;BME280;39663;45.432;28.050;2024-03-25T00:14:38;99881.24;;;17.15;41.26
52291;BME280;39663;45.432;28.050;2024-03-25T00:15:10;99882.01;;;16.97;41.27
52291;BME280;39663;45.432;28.050;2024-03-25T00:15:41;99875.99;;;17.35;41.24
52291;BME280;39663;45.432;28.050;2024-03-25T00:16:12;99879.25;;;16.87;41.36
52291;BME280;39663;45.432;28.050;2024-03-25T00:16:44;99870.33;;;17.06;41.18
52291;BME280;39663;45.432;28.050;2024-03-25T00:17:17;99865.74;;;16.92;41.31
52291;BME280;39663;45.432;28.050;2024-03-25T00:17:49;99868.79;;;16.89;41.30
52291;BME280;39663;45.432;28.050;2024-03-25T00:18:20;99864.85;;;17.12;40.96
52291;BME280;39663;45.432;28.050;2024-03-25T00:18:52;99863.01;;;17.09;40.93
52291;BME280;39663;45.432;28.050;2024-03-25T00:19:24;99866.26;;;17.05;40.91
52291;BME280;39663;45.432;28.050;2024-03-25T00:19:56;99865.93;;;16.99;41.12
52291;BME280;39663;45.432;28.050;2024-03-25T00:20:27;99867.43;;;16.91;40.96
52291;BME280;39663;45.432;28.050;2024-03-25T00:20:59;99865.40;;;16.99;41.30
52291;BME280;39663;45.432;28.050;2024-03-25T00:21:30;99867.76;;;17.18;41.35
52291;BME280;39663;45.432;28.050;2024-03-25T00:22:02;99869.53;;;17.12;41.44
52291;BME280;39663;45.432;28.050;2024-03-25T00:22:34;99866.70;;;17.15;41.34
52291;BME280;39663;45.432;28.050;2024-03-25T00:23:06;99863.11;;;16.93;41.20
52291;BME280;39663;45.432;28.050;2024-03-25T00:23:37;99867.99;;;16.90;41.34
52291;BME280;39663;45.432;28.050;2024-03-25T00:24:09;99866.49;;;17.09;41.46
52291;BME280;39663;45.432;28.050;2024-03-25T00:24:40;99865.63;;;17.08;41.51
52291;BME280;39663;45.432;28.050;2024-03-25T00:25:11;99866.82;;;17.11;41.44
52291;BME280;39663;45.432;28.050;2024-03-25T00:25:43;99866.72;;;17.02;41.44
52291;BME280;39663;45.432;28.050;2024-03-25T00:26:14;99866.18;;;17.07;41.50
52291;BME280;39663;45.432;28.050;2024-03-25T00:26:46;99864.73;;;17.12;41.41
52291;BME280;39663;45.432;28.050;2024-03-25T00:27:18;99867.36;;;16.91;41.55
52291;BME280;39663;45.432;28.050;2024-03-25T00:27:49;99868.80;;;16.81;41.54
52291;BME280;39663;45.432;28.050;2024-03-25T00:28:21;99871.72;;;16.88;41.60
52291;BME280;39663;45.432;28.050;2024-03-25T00:28:52;99873.57;;;16.86;41.65
52291;BME280;39663;45.432;28.050;2024-03-25T00:29:24;99873.41;;;16.66;41.61
52291;BME280;39663;45.432;28.050;2024-03-25T00:29:55;99875.27;;;17.01;41.56
52291;BME280;39663;45.432;28.050;2024-03-25T00:30:26;99878.09;;;17.01;41.54
52291;BME280;39663;45.432;28.050;2024-03-25T00:30:58;99877.17;;;16.63;41.60
52291;BME280;39663;45.432;28.050;2024-03-25T00:31:29;99880.55;;;16.81;41.67
52291;BME280;39663;45.432;28.050;2024-03-25T00:32:01;99881.54;;;16.72;41.47
52291;BME280;39663;45.432;28.050;2024-03-25T00:32:33;99881.25;;;16.94;41.58
52291;BME280;39663;45.432;28.050;2024-03-25T00:33:05;99883.26;;;16.92;41.67
52291;BME280;39663;45.432;28.050;2024-03-25T00:33:36;99884.02;;;16.96;41.73
52291;BME280;39663;45.432;28.050;2024-03-25T00:34:07;99880.55;;;16.96;41.65
52291;BME280;39663;45.432;28.050;2024-03-25T00:34:39;99881.81;;;16.75;41.70
52291;BME280;39663;45.432;28.050;2024-03-25T00:35:12;99879.52;;;16.92;41.73
52291;BME280;39663;45.432;28.050;2024-03-25T00:35:49;99877.49;;;16.90;41.74
52291;BME280;39663;45.432;28.050;2024-03-25T00:36:20;99880.83;;;16.90;41.84
52291;BME280;39663;45.432;28.050;2024-03-25T00:36:53;99880.20;;;16.89;41.84
52291;BME280;39663;45.432;28.050;2024-03-25T00:37:24;99882.51;;;16.86;41.83
52291;BME280;39663;45.432;28.050;2024-03-25T00:37:56;99883.17;;;16.87;41.74
52291;BME280;39663;45.432;28.050;2024-03-25T00:38:27;99882.44;;;16.66;41.76
52291;BME280;39663;45.432;28.050;2024-03-25T00:39:00;99882.87;;;16.67;41.77
52291;BME280;39663;45.432;28.050;2024-03-25T00:39:31;99887.62;;;16.62;41.68
52291;BME280;39663;45.432;28.050;2024-03-25T00:40:06;99887.89;;;16.63;41.79
52291;BME280;39663;45.432;28.050;2024-03-25T00:40:37;99891.74;;;16.65;41.81
52291;BME280;39663;45.432;28.050;2024-03-25T00:41:09;99887.75;;;16.82;41.74
52291;BME280;39663;45.432;28.050;2024-03-25T00:41:40;99886.84;;;16.74;41.81
52291;BME280;39663;45.432;28.050;2024-03-25T00:42:13;99888.15;;;16.78;41.91
52291;BME280;39663;45.432;28.050;2024-03-25T00:42:44;99881.70;;;16.85;41.97
52291;BME280;39663;45.432;28.050;2024-03-25T00:43:16;99882.79;;;16.79;41.97
52291;BME280;39663;45.432;28.050;2024-03-25T00:43:47;99876.69;;;16.78;41.95
52291;BME280;39663;45.432;28.050;2024-03-25T00:44:19;99878.33;;;16.76;41.91
52291;BME280;39663;45.432;28.050;2024-03-25T00:44:51;99875.39;;;16.76;41.96
52291;BME280;39663;45.432;28.050;2024-03-25T00:45:22;99871.10;;;16.89;41.99
52291;BME280;39663;45.432;28.050;2024-03-25T00:45:54;99871.87;;;16.71;41.87
52291;BME280;39663;45.432;28.050;2024-03-25T00:46:25;99866.94;;;16.72;41.94
52291;BME280;39663;45.432;28.050;2024-03-25T00:46:57;99863.23;;;16.68;41.93
52291;BME280;39663;45.432;28.050;2024-03-25T00:47:28;99864.31;;;16.52;41.98
52291;BME280;39663;45.432;28.050;2024-03-25T00:48:01;99862.52;;;16.70;42.04
52291;BME280;39663;45.432;28.050;2024-03-25T00:48:32;99861.29;;;16.70;42.06
52291;BME280;39663;45.432;28.050;2024-03-25T00:49:04;99858.34;;;16.68;42.04
52291;BME280;39663;45.432;28.050;2024-03-25T00:49:35;99856.53;;;16.69;42.06
52291;BME280;39663;45.432;28.050;2024-03-25T00:50:07;99855.21;;;16.88;41.85
52291;BME280;39663;45.432;28.050;2024-03-25T00:50:39;99851.03;;;16.68;42.01
52291;BME280;39663;45.432;28.050;2024-03-25T00:51:10;99850.36;;;16.84;42.05
52291;BME280;39663;45.432;28.050;2024-03-25T00:51:42;99846.86;;;16.82;42.11
52291;BME280;39663;45.432;28.050;2024-03-25T00:52:13;99846.73;;;16.62;42.08
52291;BME280;39663;45.432;28.050;2024-03-25T00:52:45;99844.78;;;16.42;42.14
52291;BME280;39663;45.432;28.050;2024-03-25T00:53:17;99844.39;;;16.60;42.07
52291;BME280;39663;45.432;28.050;2024-03-25T00:53:48;99840.75;;;16.59;42.18
52291;BME280;39663;45.432;28.050;2024-03-25T00:54:19;99839.67;;;16.64;42.12
52291;BME280;39663;45.432;28.050;2024-03-25T00:54:51;99835.51;;;16.61;42.18
52291;BME280;39663;45.432;28.050;2024-03-25T00:55:22;99837.43;;;16.59;42.18
52291;BME280;39663;45.432;28.050;2024-03-25T00:55:54;99832.07;;;16.59;42.16
52291;BME280;39663;45.432;28.050;2024-03-25T00:56:27;99830.46;;;16.75;42.25
52291;BME280;39663;45.432;28.050;2024-03-25T00:56:58;99821.59;;;16.74;42.21
52291;BME280;39663;45.432;28.050;2024-03-25T00:57:30;99817.46;;;16.55;42.16
52291;BME280;39663;45.432;28.050;2024-03-25T00:58:02;99815.08;;;16.54;42.19
52291;BME280;39663;45.432;28.050;2024-03-25T00:58:34;99809.55;;;16.54;42.25
52291;BME280;39663;45.432;28.050;2024-03-25T01:05:40;99774.59;;;16.34;42.93
52291;BME280;39663;45.432;28.050;2024-03-25T01:06:12;99773.39;;;16.29;42.81
52291;BME280;39663;45.432;28.050;2024-03-25T01:06:45;99771.36;;;16.13;42.88
52291;BME280;39663;45.432;28.050;2024-03-25T01:07:17;99766.63;;;16.39;42.90
52291;BME280;39663;45.432;28.050;2024-03-25T01:07:48;99764.79;;;16.18;42.87
52291;BME280;39663;45.432;28.050;2024-03-25T01:08:20;99765.56;;;16.19;42.77
52291;BME280;39663;45.432;28.050;2024-03-25T01:08:53;99765.31;;;16.45;42.78
52291;BME280;39663;45.432;28.050;2024-03-25T01:09:24;99765.19;;;16.25;42.69
52291;BME280;39663;45.432;28.050;2024-03-25T01:09:56;99765.79;;;16.50;42.73
52291;BME280;39663;45.432;28.050;2024-03-25T01:10:28;99766.30;;;16.29;42.68
52291;BME280;39663;45.432;28.050;2024-03-25T01:10:59;99762.51;;;16.46;42.70
52291;BME280;39663;45.432;28.050;2024-03-25T01:11:31;99765.85;;;16.44;42.71
52291;BME280;39663;45.432;28.050;2024-03-25T01:12:02;99763.82;;;16.49;42.69
52291;BME280;39663;45.432;28.050;2024-03-25T01:12:34;99764.09;;;16.48;42.69
52291;BME280;39663;45.432;28.050;2024-03-25T01:13:07;99763.24;;;16.46;42.61
52291;BME280;39663;45.432;28.050;2024-03-25T01:13:38;99758.26;;;16.29;42.56
52291;BME280;39663;45.432;28.050;2024-03-25T01:14:10;99759.46;;;16.42;42.61
52291;BME280;39663;45.432;28.050;2024-03-25T01:14:41;99756.63;;;16.50;42.70
52291;BME280;39663;45.432;28.050;2024-03-25T01:15:14;99751.41;;;16.46;42.74
52291;BME280;39663;45.432;28.050;2024-03-25T01:15:45;99750.53;;;16.64;42.68
52291;BME280;39663;45.432;28.050;2024-03-25T01:16:17;99750.81;;;16.47;42.70
52291;BME280;39663;45.432;28.050;2024-03-25T01:16:49;99750.25;;;16.27;42.60
52291;BME280;39663;45.432;28.050;2024-03-25T01:17:21;99751.41;;;16.27;42.54
52291;BME280;39663;45.432;28.050;2024-03-25T01:17:53;99754.24;;;16.42;42.53
52291;BME280;39663;45.432;28.050;2024-03-25T01:18:24;99758.32;;;16.43;42.56
52291;BME280;39663;45.432;28.050;2024-03-25T01:18:58;99756.60;;;16.38;42.76
52291;BME280;39663;45.432;28.050;2024-03-25T01:19:30;99756.90;;;16.35;42.67
52291;BME280;39663;45.432;28.050;2024-03-25T01:20:02;99757.61;;;16.22;42.60
52291;BME280;39663;45.432;28.050;2024-03-25T01:20:33;99758.74;;;16.18;42.69
52291;BME280;39663;45.432;28.050;2024-03-25T01:21:05;99760.90;;;16.39;42.66
52291;BME280;39663;45.432;28.050;2024-03-25T01:21:37;99759.16;;;16.20;42.71
52291;BME280;39663;45.432;28.050;2024-03-25T01:22:09;99762.33;;;16.32;42.71
52291;BME280;39663;45.432;28.050;2024-03-25T01:22:40;99762.46;;;16.61;42.65
52291;BME280;39663;45.432;28.050;2024-03-25T01:23:11;99765.38;;;16.32;42.68
52291;BME280;39663;45.432;28.050;2024-03-25T01:23:43;99762.01;;;16.38;42.71
52291;BME280;39663;45.432;28.050;2024-03-25T01:24:14;99765.92;;;16.38;42.77
52291;BME280;39663;45.432;28.050;2024-03-25T01:24:46;99760.53;;;16.33;42.77
52291;BME280;39663;45.432;28.050;2024-03-25T01:25:18;99762.93;;;16.18;42.72
52291;BME280;39663;45.432;28.050;2024-03-25T01:25:50;99760.77;;;16.17;42.76
52291;BME280;39663;45.432;28.050;2024-03-25T01:26:23;99760.67;;;16.36;42.62
52291;BME280;39663;45.432;28.050;2024-03-25T01:26:54;99761.49;;;16.18;42.71
52291;BME280;39663;45.432;28.050;2024-03-25T01:27:26;99762.40;;;16.17;42.73
52291;BME280;39663;45.432;28.050;2024-03-25T01:27:57;99758.16;;;16.31;42.73
52291;BME280;39663;45.432;28.050;2024-03-25T01:28:29;99758.86;;;16.12;42.75
52291;BME280;39663;45.432;28.050;2024-03-25T01:29:00;99757.62;;;16.31;42.77
52291;BME280;39663;45.432;28.050;2024-03-25T01:29:32;99755.15;;;16.30;42.75
52291;BME280;39663;45.432;28.050;2024-03-25T01:30:04;99757.61;;;16.37;42.79
52291;BME280;39663;45.432;28.050;2024-03-25T01:30:37;99757.13;;;16.11;42.78
52291;BME280;39663;45.432;28.050;2024-03-25T01:31:08;99758.48;;;16.12;42.78
52291;BME280;39663;45.432;28.050;2024-03-25T01:31:40;99758.89;;;16.11;42.79
52291;BME280;39663;45.432;28.050;2024-03-25T01:32:12;99757.49;;;16.53;42.75
52291;BME280;39663;45.432;28.050;2024-03-25T01:32:43;99758.38;;;16.33;42.80
52291;BME280;39663;45.432;28.050;2024-03-25T01:33:15;99753.45;;;16.33;42.79
52291;BME280;39663;45.432;28.050;2024-03-25T01:33:48;99754.45;;;16.46;42.66
52291;BME280;39663;45.432;28.050;2024-03-25T01:34:20;99754.56;;;16.53;42.71
52291;BME280;39663;45.432;28.050;2024-03-25T01:34:54;99755.01;;;16.45;42.77
52291;BME280;39663;45.432;28.050;2024-03-25T01:35:26;99755.35;;;16.25;42.85
52291;BME280;39663;45.432;28.050;2024-03-25T01:36:31;99754.19;;;16.30;42.68
52291;BME280;39663;45.432;28.050;2024-03-25T01:37:04;99759.91;;;16.48;42.70
52291;BME280;39663;45.432;28.050;2024-03-25T01:37:36;99754.33;;;16.05;42.78
52291;BME280;39663;45.432;28.050;2024-03-25T01:38:08;99762.10;;;16.11;42.80
52291;BME280;39663;45.432;28.050;2024-03-25T01:38:40;99761.43;;;16.13;42.65
52291;BME280;39663;45.432;28.050;2024-03-25T01:39:12;99764.86;;;16.10;42.73
52291;BME280;39663;45.432;28.050;2024-03-25T01:39:43;99766.82;;;16.49;42.85
52291;BME280;39663;45.432;28.050;2024-03-25T01:40:15;99770.03;;;16.01;42.86
52291;BME280;39663;45.432;28.050;2024-03-25T01:40:47;99767.75;;;16.25;42.91
52291;BME280;39663;45.432;28.050;2024-03-25T01:41:22;99771.90;;;16.07;42.87
52291;BME280;39663;45.432;28.050;2024-03-25T01:41:53;99769.63;;;16.22;42.74
52291;BME280;39663;45.432;28.050;2024-03-25T01:42:26;99772.13;;;16.28;42.77
52291;BME280;39663;45.432;28.050;2024-03-25T01:42:58;99770.93;;;16.21;42.87
52291;BME280;39663;45.432;28.050;2024-03-25T01:43:30;99767.98;;;16.25;42.77
52291;BME280;39663;45.432;28.050;2024-03-25T01:44:03;99764.03;;;16.29;42.87
52291;BME280;39663;45.432;28.050;2024-03-25T01:44:34;99761.39;;;16.16;42.90
52291;BME280;39663;45.432;28.050;2024-03-25T01:45:07;99757.51;;;16.38;42.64
52291;BME280;39663;45.432;28.050;2024-03-25T01:45:39;99757.51;;;16.22;42.84
52291;BME280;39663;45.432;28.050;2024-03-25T01:46:10;99757.05;;;16.21;42.83
52291;BME280;39663;45.432;28.050;2024-03-25T01:46:42;99758.49;;;16.19;42.84
52291;BME280;39663;45.432;28.050;2024-03-25T01:47:15;99752.67;;;16.02;42.99
52291;BME280;39663;45.432;28.050;2024-03-25T01:47:47;99751.82;;;16.31;42.88
52291;BME280;39663;45.432;28.050;2024-03-25T01:48:19;99754.02;;;16.16;42.82
52291;BME280;39663;45.432;28.050;2024-03-25T01:48:51;99753.38;;;16.17;42.81
52291;BME280;39663;45.432;28.050;2024-03-25T01:49:23;99745.85;;;16.10;42.95
52291;BME280;39663;45.432;28.050;2024-03-25T01:49:55;99746.92;;;16.32;42.92
52291;BME280;39663;45.432;28.050;2024-03-25T01:50:27;99744.76;;;16.11;42.98
52291;BME280;39663;45.432;28.050;2024-03-25T01:51:00;99745.93;;;16.10;42.91
52291;BME280;39663;45.432;28.050;2024-03-25T01:51:33;99746.29;;;16.30;42.94
52291;BME280;39663;45.432;28.050;2024-03-25T01:52:09;99749.07;;;16.35;42.64
52291;BME280;39663;45.432;28.050;2024-03-25T01:52:41;99744.71;;;15.92;42.86
52291;BME280;39663;45.432;28.050;2024-03-25T01:53:15;99749.02;;;16.08;42.50
52291;BME280;39663;45.432;28.050;2024-03-25T01:53:52;99749.92;;;16.02;42.75
52291;BME280;39663;45.432;28.050;2024-03-25T01:54:25;99754.17;;;16.08;42.93
52291;BME280;39663;45.432;28.050;2024-03-25T01:54:57;99757.95;;;15.83;42.84
52291;BME280;39663;45.432;28.050;2024-03-25T01:55:29;99762.97;;;16.04;42.98
52291;BME280;39663;45.432;28.050;2024-03-25T01:56:03;99764.25;;;16.02;43.01
52291;BME280;39663;45.432;28.050;2024-03-25T01:56:35;99774.28;;;16.01;42.96
52291;BME280;39663;45.432;28.050;2024-03-25T01:57:07;99764.55;;;16.23;43.08
52291;BME280;39663;45.432;28.050;2024-03-25T01:57:40;99768.24;;;16.24;42.67
52291;BME280;39663;45.432;28.050;2024-03-25T01:58:12;99770.55;;;15.96;42.79
52291;BME280;39663;45.432;28.050;2024-03-25T01:58:44;99767.51;;;15.94;42.88
52291;BME280;39663;45.432;28.050;2024-03-25T02:01:35;99757.84;;;15.39;42.99
52291;BME280;39663;45.432;28.050;2024-03-25T02:02:07;99755.90;;;15.42;43.12
52291;BME280;39663;45.432;28.050;2024-03-25T02:02:40;99751.52;;;15.38;43.30
52291;BME280;39663;45.432;28.050;2024-03-25T02:03:11;99751.49;;;15.42;43.34
52291;BME280;39663;45.432;28.050;2024-03-25T02:03:43;99752.38;;;15.64;43.40
52291;BME280;39663;45.432;28.050;2024-03-25T02:04:15;99753.44;;;15.67;43.27
52291;BME280;39663;45.432;28.050;2024-03-25T02:04:47;99757.12;;;15.51;42.99
52291;BME280;39663;45.432;28.050;2024-03-25T02:05:19;99753.80;;;15.48;43.16
52291;BME280;39663;45.432;28.050;2024-03-25T02:05:55;99757.14;;;15.89;42.90
52291;BME280;39663;45.432;28.050;2024-03-25T02:06:28;99755.60;;;15.81;42.92
52291;BME280;39663;45.432;28.050;2024-03-25T02:07:02;99754.81;;;15.75;42.88
52291;BME280;39663;45.432;28.050;2024-03-25T02:07:34;99756.35;;;15.82;42.86
52291;BME280;39663;45.432;28.050;2024-03-25T02:08:07;99751.46;;;15.99;43.03
52291;BME280;39663;45.432;28.050;2024-03-25T02:08:39;99752.00;;;15.73;42.96
52291;BME280;39663;45.432;28.050;2024-03-25T02:09:13;99749.96;;;15.79;43.13
52291;BME280;39663;45.432;28.050;2024-03-25T02:09:45;99749.09;;;15.74;43.04
52291;BME280;39663;45.432;28.050;2024-03-25T02:10:17;99749.45;;;15.98;43.20
52291;BME280;39663;45.432;28.050;2024-03-25T02:10:48;99746.81;;;15.75;42.92
52291;BME280;39663;45.432;28.050;2024-03-25T02:11:20;99745.13;;;15.95;42.90
52291;BME280;39663;45.432;28.050;2024-03-25T02:11:53;99745.97;;;15.98;43.08
52291;BME280;39663;45.432;28.050;2024-03-25T02:12:24;99748.82;;;15.78;43.13
52291;BME280;39663;45.432;28.050;2024-03-25T02:12:56;99744.34;;;15.64;43.28
52291;BME280;39663;45.432;28.050;2024-03-25T02:13:28;99746.38;;;15.68;43.13
52291;BME280;39663;45.432;28.050;2024-03-25T02:13:59;99742.44;;;15.99;43.12
52291;BME280;39663;45.432;28.050;2024-03-25T02:14:31;99743.71;;;15.97;42.97
52291;BME280;39663;45.432;28.050;2024-03-25T02:15:03;99740.11;;;15.94;43.03
52291;BME280;39663;45.432;28.050;2024-03-25T02:15:35;99738.82;;;15.78;43.10
52291;BME280;39663;45.432;28.050;2024-03-25T02:16:07;99737.36;;;15.97;42.92
52291;BME280;39663;45.432;28.050;2024-03-25T02:16:38;99731.71;;;15.97;43.04
52291;BME280;39663;45.432;28.050;2024-03-25T02:17:10;99733.49;;;15.94;42.78
52291;BME280;39663;45.432;28.050;2024-03-25T02:17:41;99730.70;;;15.92;43.07
52291;BME280;39663;45.432;28.050;2024-03-25T02:18:13;99725.56;;;15.91;43.11
52291;BME280;39663;45.432;28.050;2024-03-25T02:18:47;99720.03;;;15.93;43.11
52291;BME280;39663;45.432;28.050;2024-03-25T02:19:18;99715.57;;;15.90;42.93
52291;BME280;39663;45.432;28.050;2024-03-25T02:19:51;99714.34;;;15.70;42.89
52291;BME280;39663;45.432;28.050;2024-03-25T02:20:22;99711.90;;;15.82;43.16
52291;BME280;39663;45.432;28.050;2024-03-25T02:20:54;99707.96;;;15.85;43.21
52291;BME280;39663;45.432;28.050;2024-03-25T02:21:26;99708.98;;;15.84;43.27
52291;BME280;39663;45.432;28.050;2024-03-25T02:21:57;99703.73;;;15.83;43.15
52291;BME280;39663;45.432;28.050;2024-03-25T02:22:29;99696.09;;;15.88;43.18
52291;BME280;39663;45.432;28.050;2024-03-25T02:23:01;99700.35;;;15.85;43.27
52291;BME280;39663;45.432;28.050;2024-03-25T02:23:33;99695.47;;;15.87;43.11
52291;BME280;39663;45.432;28.050;2024-03-25T02:24:07;99692.72;;;15.80;43.16
52291;BME280;39663;45.432;28.050;2024-03-25T02:24:41;99696.71;;;15.81;42.97
52291;BME280;39663;45.432;28.050;2024-03-25T02:25:14;99690.62;;;15.67;43.17
52291;BME280;39663;45.432;28.050;2024-03-25T02:25:50;99692.98;;;15.80;43.16
52291;BME280;39663;45.432;28.050;2024-03-25T02:26:21;99693.67;;;15.64;43.10
52291;BME280;39663;45.432;28.050;2024-03-25T02:26:53;99699.35;;;15.85;43.05
52291;BME280;39663;45.432;28.050;2024-03-25T02:27:25;99703.50;;;15.84;43.12
52291;BME280;39663;45.432;28.050;2024-03-25T02:27:57;99708.84;;;15.77;43.13
52291;BME280;39663;45.432;28.050;2024-03-25T02:28:29;99709.39;;;15.58;43.23
52291;BME280;39663;45.432;28.050;2024-03-25T02:29:00;99716.04;;;15.75;43.35
52291;BME280;39663;45.432;28.050;2024-03-25T02:29:34;99721.38;;;15.82;43.25
52291;BME280;39663;45.432;28.050;2024-03-25T02:30:07;99730.50;;;15.83;43.25
52291;BME280;39663;45.432;28.050;2024-03-25T02:30:39;99726.92;;;15.77;43.28
52291;BME280;39663;45.432;28.050;2024-03-25T02:31:10;99729.68;;;15.83;43.31
52291;BME280;39663;45.432;28.050;2024-03-25T02:31:42;99735.69;;;15.83;43.32
52291;BME280;39663;45.432;28.050;2024-03-25T02:32:13;99730.54;;;15.62;43.35
52291;BME280;39663;45.432;28.050;2024-03-25T02:32:44;99736.63;;;15.81;43.40
52291;BME280;39663;45.432;28.050;2024-03-25T02:33:16;99735.42;;;15.79;43.31
52291;BME280;39663;45.432;28.050;2024-03-25T02:33:47;99733.05;;;15.61;43.32
52291;BME280;39663;45.432;28.050;2024-03-25T02:34:18;99730.32;;;15.61;43.33
52291;BME280;39663;45.432;28.050;2024-03-25T02:34:52;99728.96;;;15.62;43.34
52291;BME280;39663;45.432;28.050;2024-03-25T02:35:25;99730.28;;;15.81;43.28
52291;BME280;39663;45.432;28.050;2024-03-25T02:35:57;99726.42;;;15.59;43.45
52291;BME280;39663;45.432;28.050;2024-03-25T02:36:29;99722.10;;;15.76;43.28
52291;BME280;39663;45.432;28.050;2024-03-25T02:37:01;99720.52;;;15.71;43.11
52291;BME280;39663;45.432;28.050;2024-03-25T02:37:32;99715.34;;;15.79;43.28
52291;BME280;39663;45.432;28.050;2024-03-25T02:38:04;99709.42;;;15.79;43.34
52291;BME280;39663;45.432;28.050;2024-03-25T02:38:36;99711.42;;;15.76;43.35
52291;BME280;39663;45.432;28.050;2024-03-25T02:39:08;99708.11;;;15.79;43.37
52291;BME280;39663;45.432;28.050;2024-03-25T02:39:39;99707.92;;;15.77;43.16
52291;BME280;39663;45.432;28.050;2024-03-25T02:40:11;99702.22;;;15.79;43.30
52291;BME280;39663;45.432;28.050;2024-03-25T02:40:42;99696.77;;;15.59;43.19
52291;BME280;39663;45.432;28.050;2024-03-25T02:41:14;99693.48;;;15.75;43.27
52291;BME280;39663;45.432;28.050;2024-03-25T02:41:46;99692.14;;;15.74;43.30
52291;BME280;39663;45.432;28.050;2024-03-25T02:42:18;99689.04;;;15.68;43.39
52291;BME280;39663;45.432;28.050;2024-03-25T02:42:49;99687.86;;;15.73;43.26
52291;BME280;39663;45.432;28.050;2024-03-25T02:43:21;99680.90;;;15.69;43.24
52291;BME280;39663;45.432;28.050;2024-03-25T02:43:52;99673.85;;;15.76;43.32
52291;BME280;39663;45.432;28.050;2024-03-25T02:44:24;99670.07;;;15.73;43.41
52291;BME280;39663;45.432;28.050;2024-03-25T02:44:56;99670.30;;;15.72;43.37
52291;BME280;39663;45.432;28.050;2024-03-25T02:45:28;99662.24;;;15.71;43.35
52291;BME280;39663;45.432;28.050;2024-03-25T02:46:00;99667.71;;;15.72;43.34
52291;BME280;39663;45.432;28.050;2024-03-25T02:46:31;99662.52;;;15.73;43.32
52291;BME280;39663;45.432;28.050;2024-03-25T02:47:03;99661.22;;;15.72;43.32
52291;BME280;39663;45.432;28.050;2024-03-25T02:47:34;99653.25;;;15.70;43.42
52291;BME280;39663;45.432;28.050;2024-03-25T02:48:07;99662.59;;;15.67;43.42
52291;BME280;39663;45.432;28.050;2024-03-25T02:48:38;99657.36;;;15.63;43.37
52291;BME280;39663;45.432;28.050;2024-03-25T02:49:09;99662.85;;;15.73;42.92
52291;BME280;39663;45.432;28.050;2024-03-25T02:49:41;99649.86;;;15.76;43.16
52291;BME280;39663;45.432;28.050;2024-03-25T02:50:12;99651.40;;;15.64;43.29
52291;BME280;39663;45.432;28.050;2024-03-25T02:50:44;99653.57;;;15.64;43.32
52291;BME280;39663;45.432;28.050;2024-03-25T02:51:15;99649.48;;;15.65;43.24
52291;BME280;39663;45.432;28.050;2024-03-25T02:51:47;99648.68;;;15.65;43.17
52291;BME280;39663;45.432;28.050;2024-03-25T02:52:18;99646.19;;;15.63;43.26
52291;BME280;39663;45.432;28.050;2024-03-25T02:52:50;99646.55;;;15.59;43.39
52291;BME280;39663;45.432;28.050;2024-03-25T02:53:21;99648.17;;;15.58;43.03
52291;BME280;39663;45.432;28.050;2024-03-25T02:53:53;99643.79;;;15.62;43.27
52291;BME280;39663;45.432;28.050;2024-03-25T02:54:24;99643.93;;;15.57;43.04
52291;BME280;39663;45.432;28.050;2024-03-25T02:54:55;99644.44;;;15.59;43.07
52291;BME280;39663;45.432;28.050;2024-03-25T02:55:27;99635.93;;;15.59;43.17
52291;BME280;39663;45.432;28.050;2024-03-25T02:55:58;99635.71;;;15.60;42.93
52291;BME280;39663;45.432;28.050;2024-03-25T02:56:29;99631.48;;;15.55;43.15